To NAV CANADA Home Page Login to a new session Search on AWWS site Feedback and Comments Disclaimer Vers la page française équivalente Tips FAQ What's new on the site To the Forecasts and Observations / NOTAM section To "File a Flight Plan" website Publications and other links Update of the User's profile FIC Telephone Numbers My Weather Data Folder Route Weather Data Regional Weather Data Local Weather Data To the Forecasts and Observations / NOTAM section
Request Generated 01/21/2017 at 02:04:22 UTC . Weather information available at that time is displayed.

METAR/TAF

WINNIPEG/JAMES ARMSTRONG RICHARDSON INTL/MB    

METAR CYWG 210200Z 12010KT 5SM -RA OVC004 02/01 A2947 RMK ST8 CIG VRB
003-005 SLP991=
SPECI CYWG 210135Z 12010KT 5SM -RA BKN005 OVC011 02/02 A2947 RMK
ST6SC2 CIG RAG SLP993=
SPECI CYWG 210129Z 12010KT 5SM -RA OVC004 02/02 A2948 RMK SC8 SLP994=
METAR CYWG 210100Z 12009KT 2SM -RA BR OVC003 02/02 A2948 RMK ST8
SLP994=
SPECI CYWG 210041Z 13007KT 2SM -RA BR OVC003 02/02 A2948 RMK ST8
SLP995=
SPECI CYWG 210027Z 13007KT 1SM R13/P6000FT/U R36/P6000FT/U -DZ BR
OVC003 02/02 A2948 RMK ST8 SLP994=
METAR CYWG 210000Z 14007KT 3/4SM R13/P6000FT/N R36/P6000FT/D -DZ BR
OVC003 02/02 A2948 RMK ST8 SLP994=

TAF AMD CYWG 210133Z 2101/2124 12010KT 5SM -RA BR OVC004 TEMPO
2101/2109 2SM -RA -DZ BR OVC002
FM210900 14010KT 1SM -DZ BR OVC002 TEMPO 2109/2124 3SM BR OVC004
RMK NXT FCST BY 210600Z=
Your time UTC time
Weather data provided by Environment Canada and NAV CANADA